createdAt,value
2022-10-18T00:01:26.485Z,12.30
2022-10-18T00:03:55.435Z,12.30
2022-10-18T00:06:24.484Z,12.30
2022-10-18T00:08:53.754Z,12.30
2022-10-18T00:11:23.052Z,12.20
2022-10-18T00:13:52.183Z,12.20
2022-10-18T00:16:22.884Z,12.30
2022-10-18T00:18:52.003Z,12.30
2022-10-18T00:21:23.572Z,12.30
2022-10-18T00:23:54.060Z,12.30
2022-10-18T00:26:25.458Z,12.40
2022-10-18T00:28:57.527Z,12.40
2022-10-18T00:31:30.147Z,12.40
2022-10-18T00:34:00.816Z,12.40
2022-10-18T00:36:31.924Z,12.50
2022-10-18T00:39:01.736Z,12.50
2022-10-18T00:41:32.760Z,12.50
2022-10-18T00:44:04.122Z,12.50
2022-10-18T00:46:35.946Z,12.50
2022-10-18T00:49:07.376Z,12.60
2022-10-18T00:51:55.204Z,12.50
2022-10-18T00:54:25.059Z,12.60
2022-10-18T00:56:54.376Z,12.60
2022-10-18T00:59:25.031Z,12.70
2022-10-18T01:01:55.480Z,12.70
2022-10-18T01:04:25.719Z,12.80
2022-10-18T01:07:01.157Z,12.80
2022-10-18T01:09:35.399Z,12.80
2022-10-18T01:12:18.170Z,12.90
2022-10-18T01:14:55.264Z,12.90
2022-10-18T01:17:33.878Z,13.00
2022-10-18T01:20:29.117Z,13.00
2022-10-18T01:23:02.421Z,13.10
2022-10-18T01:25:50.088Z,13.20
2022-10-18T01:28:36.309Z,13.20
2022-10-18T01:31:11.125Z,13.20
2022-10-18T01:33:44.628Z,13.20
2022-10-18T01:36:19.770Z,13.20
2022-10-18T01:38:52.277Z,13.20
2022-10-18T01:41:23.699Z,13.20
2022-10-18T01:43:57.732Z,13.30
2022-10-18T01:46:30.781Z,13.30
2022-10-18T01:49:00.700Z,13.30
2022-10-18T01:51:33.148Z,13.20
2022-10-18T01:54:02.983Z,13.30
2022-10-18T01:56:40.240Z,13.20
2022-10-18T01:59:32.029Z,13.20
2022-10-18T02:02:16.010Z,13.20
2022-10-18T02:04:52.980Z,13.20
2022-10-18T02:07:30.300Z,13.20
2022-10-18T02:12:38.532Z,13.10
2022-10-18T02:15:10.222Z,13.10
2022-10-18T02:17:41.617Z,13.10
2022-10-18T02:20:11.755Z,13.00
2022-10-18T02:22:43.171Z,13.00
2022-10-18T02:25:18.531Z,13.00
2022-10-18T02:27:47.783Z,13.00
2022-10-18T02:30:17.457Z,12.90
2022-10-18T02:32:55.610Z,12.90
2022-10-18T02:35:30.669Z,12.90
2022-10-18T02:38:00.489Z,12.90
2022-10-18T02:40:29.326Z,12.90
2022-10-18T02:42:59.800Z,12.90
2022-10-18T02:45:29.444Z,12.90
2022-10-18T02:47:59.797Z,12.90
2022-10-18T02:50:28.703Z,12.90
2022-10-18T02:52:57.800Z,12.80
2022-10-18T02:55:26.600Z,12.90
2022-10-18T02:57:55.373Z,12.80
2022-10-18T03:00:24.211Z,12.70
2022-10-18T03:02:54.143Z,12.70
2022-10-18T03:05:24.392Z,12.60
2022-10-18T03:07:53.294Z,12.60
2022-10-18T03:10:22.172Z,12.60
2022-10-18T03:12:51.103Z,12.50
2022-10-18T03:15:19.974Z,12.60
2022-10-18T03:17:48.815Z,12.60
2022-10-18T03:20:17.791Z,12.50
2022-10-18T03:22:48.099Z,12.50
2022-10-18T03:25:17.060Z,12.50
2022-10-18T03:27:46.050Z,12.50
2022-10-18T03:30:15.130Z,12.40
2022-10-18T03:32:44.005Z,12.40
2022-10-18T03:35:12.894Z,12.40
2022-10-18T03:37:41.747Z,12.40
2022-10-18T03:40:13.050Z,12.40
2022-10-18T03:42:41.930Z,12.40
2022-10-18T03:45:11.664Z,12.30
2022-10-18T03:47:40.411Z,12.30
2022-10-18T03:50:09.966Z,12.30
2022-10-18T03:52:38.776Z,12.30
2022-10-18T03:55:08.916Z,12.30
2022-10-18T03:57:39.276Z,12.20
2022-10-18T04:00:09.767Z,12.30
2022-10-18T04:02:38.597Z,12.20
2022-10-18T04:05:08.119Z,12.30
2022-10-18T04:07:41.276Z,12.30
2022-10-18T04:10:10.609Z,12.20
2022-10-18T04:12:40.888Z,12.20
2022-10-18T04:15:11.041Z,12.20
2022-10-18T04:17:39.763Z,12.20
2022-10-18T04:20:09.871Z,12.20
2022-10-18T04:22:38.660Z,12.20
2022-10-18T04:25:08.241Z,12.10
2022-10-18T04:27:37.112Z,12.10
2022-10-18T04:30:08.755Z,12.10
2022-10-18T04:32:37.616Z,12.20
2022-10-18T04:35:07.522Z,12.20
2022-10-18T04:37:36.586Z,12.20
2022-10-18T04:40:06.026Z,12.30
2022-10-18T04:42:35.425Z,12.20
2022-10-18T04:45:04.356Z,12.30
2022-10-18T04:47:34.819Z,12.40
2022-10-18T04:50:03.904Z,12.40
2022-10-18T04:52:32.785Z,12.40
2022-10-18T04:55:01.670Z,12.40
2022-10-18T04:57:30.758Z,12.40
2022-10-18T05:00:00.342Z,12.50
2022-10-18T05:02:29.308Z,12.50
2022-10-18T05:04:59.784Z,12.60
2022-10-18T05:07:28.628Z,12.60
2022-10-18T05:09:57.602Z,12.70
2022-10-18T05:12:26.489Z,12.80
2022-10-18T05:14:56.817Z,12.80
2022-10-18T05:17:25.950Z,12.80
2022-10-18T05:19:54.802Z,12.90
2022-10-18T05:22:25.144Z,12.90
2022-10-18T05:24:53.941Z,13.00
2022-10-18T05:27:22.652Z,13.00
2022-10-18T05:29:51.495Z,13.10
2022-10-18T05:32:20.283Z,13.10
2022-10-18T05:34:49.163Z,13.20
2022-10-18T05:37:17.950Z,13.30
2022-10-18T05:39:48.264Z,13.30
2022-10-18T05:42:17.082Z,13.50
2022-10-18T05:44:46.006Z,13.60
2022-10-18T05:47:15.007Z,13.80
2022-10-18T05:49:43.856Z,13.90
2022-10-18T05:52:12.666Z,14.00
2022-10-18T05:54:41.895Z,14.20
2022-10-18T05:57:12.177Z,14.30
2022-10-18T05:59:41.067Z,14.40
2022-10-18T06:02:11.299Z,14.40
2022-10-18T06:04:40.286Z,14.50
2022-10-18T06:07:11.256Z,14.60
2022-10-18T06:09:40.335Z,14.70
2022-10-18T06:12:09.466Z,14.80
2022-10-18T06:14:40.054Z,14.80
2022-10-18T06:17:08.851Z,14.90
2022-10-18T06:19:38.103Z,14.90
2022-10-18T06:22:07.246Z,14.90
2022-10-18T06:24:36.253Z,15.00
2022-10-18T06:27:09.285Z,15.00
2022-10-18T06:29:41.245Z,15.10
2022-10-18T06:32:11.672Z,15.10
2022-10-18T06:34:40.725Z,15.10
2022-10-18T06:37:09.707Z,15.00
2022-10-18T06:39:38.632Z,15.10
2022-10-18T06:42:07.545Z,15.10
2022-10-18T06:44:36.445Z,15.10
2022-10-18T06:47:08.885Z,15.20
2022-10-18T06:49:37.907Z,15.20
2022-10-18T06:52:07.646Z,15.20
2022-10-18T06:54:36.661Z,15.20
2022-10-18T06:57:05.584Z,15.30
2022-10-18T06:59:34.498Z,15.50
2022-10-18T07:02:03.474Z,15.50
2022-10-18T07:04:33.840Z,15.70
2022-10-18T07:07:02.710Z,15.80
2022-10-18T07:09:31.630Z,15.90
2022-10-18T07:12:00.599Z,16.20
2022-10-18T07:14:29.615Z,16.50
2022-10-18T07:17:01.020Z,16.70
2022-10-18T07:19:29.858Z,16.80
2022-10-18T07:22:00.479Z,16.80
2022-10-18T07:24:29.469Z,17.00
2022-10-18T07:26:58.472Z,17.20
2022-10-18T07:29:27.441Z,17.10
2022-10-18T07:31:56.399Z,17.20
2022-10-18T07:34:25.318Z,17.10
2022-10-18T07:36:54.227Z,17.00
2022-10-18T07:39:24.709Z,17.00
2022-10-18T07:41:53.599Z,16.90
2022-10-18T07:44:22.525Z,16.90
2022-10-18T07:46:51.347Z,16.90
2022-10-18T07:49:20.246Z,17.00
2022-10-18T07:51:49.097Z,16.90
2022-10-18T07:54:18.048Z,16.60
2022-10-18T07:56:48.378Z,16.40
2022-10-18T07:59:17.147Z,16.50
2022-10-18T08:01:46.059Z,16.50
2022-10-18T08:04:16.471Z,16.50
2022-10-18T08:06:45.698Z,16.40
2022-10-18T08:09:14.548Z,16.40
2022-10-18T08:11:43.390Z,16.30
2022-10-18T08:14:13.649Z,16.20
2022-10-18T08:16:42.519Z,16.30
2022-10-18T08:19:13.051Z,16.40
2022-10-18T08:21:41.884Z,16.40
2022-10-18T08:24:10.684Z,16.50
2022-10-18T08:26:39.457Z,16.70
2022-10-18T08:29:22.484Z,16.80
2022-10-18T08:31:54.595Z,16.90
2022-10-18T08:34:23.529Z,17.00
2022-10-18T08:36:52.350Z,17.10
2022-10-18T08:39:21.150Z,17.10
2022-10-18T08:42:15.647Z,17.20
2022-10-18T08:44:46.711Z,17.20
2022-10-18T08:47:20.235Z,17.20
2022-10-18T08:49:52.457Z,17.30
2022-10-18T08:52:32.429Z,17.40
2022-10-18T08:55:04.167Z,17.60
2022-10-18T08:57:34.315Z,17.50
2022-10-18T09:00:07.516Z,17.70
2022-10-18T09:02:56.035Z,18.00
2022-10-18T09:05:30.571Z,18.00
2022-10-18T09:08:26.586Z,18.10
2022-10-18T09:11:04.151Z,17.90
2022-10-18T09:14:08.865Z,17.90
2022-10-18T09:16:45.527Z,18.00
2022-10-18T09:19:27.297Z,18.40
2022-10-18T09:21:58.437Z,18.80
2022-10-18T09:24:32.581Z,19.20
2022-10-18T09:27:07.330Z,19.30
2022-10-18T09:29:49.523Z,19.40
2022-10-18T09:32:29.785Z,19.40
2022-10-18T09:35:06.382Z,19.60
2022-10-18T09:37:36.894Z,19.80
2022-10-18T09:40:18.175Z,19.80
2022-10-18T09:42:55.994Z,19.90
2022-10-18T09:45:29.417Z,19.80
2022-10-18T09:48:06.357Z,19.90
2022-10-18T09:50:42.734Z,20.00
2022-10-18T09:53:20.216Z,20.40
2022-10-18T09:56:01.038Z,20.70
2022-10-18T09:58:44.910Z,21.10
2022-10-18T10:01:17.137Z,21.30
2022-10-18T10:03:46.204Z,21.30
2022-10-18T10:06:28.764Z,21.10
2022-10-18T10:09:02.529Z,21.20
2022-10-18T10:11:38.191Z,21.20
2022-10-18T10:16:51.261Z,20.60
2022-10-18T10:19:23.001Z,20.60
2022-10-18T10:21:58.398Z,20.70
2022-10-18T10:24:35.130Z,20.60
2022-10-18T10:27:06.498Z,20.80
2022-10-18T10:29:56.754Z,20.90
2022-10-18T10:32:29.227Z,21.00
2022-10-18T10:34:58.413Z,20.90
2022-10-18T10:37:37.260Z,21.00
2022-10-18T10:40:27.853Z,21.20
2022-10-18T10:43:18.306Z,21.30
2022-10-18T10:46:02.003Z,21.30
2022-10-18T10:48:35.061Z,21.60
2022-10-18T10:51:07.815Z,21.60
2022-10-18T10:53:50.850Z,21.50
2022-10-18T10:56:26.507Z,21.40
2022-10-18T10:58:57.309Z,21.00
2022-10-18T11:01:32.345Z,21.00
2022-10-18T11:04:24.323Z,21.00
2022-10-18T11:07:01.670Z,21.00
2022-10-18T11:09:45.880Z,20.90
2022-10-18T11:12:30.878Z,21.10
2022-10-18T11:15:10.342Z,21.00
2022-10-18T11:17:44.619Z,21.10
2022-10-18T11:20:23.538Z,21.00
2022-10-18T11:23:01.500Z,21.10
2022-10-18T11:25:46.585Z,21.10
2022-10-18T11:28:22.436Z,20.90
2022-10-18T11:31:02.325Z,20.80
2022-10-18T11:34:07.096Z,20.70
2022-10-18T11:36:36.815Z,20.50
2022-10-18T11:39:11.228Z,20.40
2022-10-18T11:41:49.908Z,20.40
2022-10-18T11:44:25.698Z,20.40
2022-10-18T11:47:04.710Z,20.50
2022-10-18T11:49:54.380Z,20.40
2022-10-18T11:52:30.220Z,20.50
2022-10-18T11:55:21.234Z,20.20
2022-10-18T11:57:59.834Z,20.10
2022-10-18T12:00:45.060Z,20.00
2022-10-18T12:03:29.824Z,19.90
2022-10-18T12:06:02.712Z,19.70
2022-10-18T12:08:36.489Z,19.60
2022-10-18T12:11:11.342Z,19.40
2022-10-18T12:13:48.143Z,19.40
2022-10-18T12:16:18.251Z,19.20
2022-10-18T12:18:54.732Z,19.20
2022-10-18T12:21:26.618Z,19.10
2022-10-18T12:24:00.102Z,19.00
2022-10-18T12:26:30.208Z,18.90
2022-10-18T12:29:10.139Z,18.80
2022-10-18T12:31:48.444Z,18.70
2022-10-18T12:34:36.622Z,18.50
2022-10-18T12:37:38.216Z,18.40
2022-10-18T12:40:16.787Z,18.20
2022-10-18T12:42:50.333Z,18.10
2022-10-18T12:45:30.500Z,17.90
2022-10-18T12:48:02.233Z,17.80
2022-10-18T12:50:37.029Z,17.80
2022-10-18T12:53:19.814Z,17.80
2022-10-18T12:55:51.839Z,17.50
2022-10-18T12:58:32.279Z,17.60
2022-10-18T13:01:08.178Z,17.60
2022-10-18T13:03:59.367Z,17.40
2022-10-18T13:07:08.206Z,17.30
2022-10-18T13:09:38.211Z,17.30
2022-10-18T13:12:40.217Z,17.20
2022-10-18T13:15:31.051Z,17.00
2022-10-18T13:18:10.674Z,17.00
2022-10-18T13:20:44.098Z,17.00
2022-10-18T13:23:37.827Z,16.90
2022-10-18T13:26:18.543Z,16.80
2022-10-18T13:28:54.198Z,16.80
2022-10-18T13:31:25.556Z,16.90
2022-10-18T13:33:55.995Z,16.90
2022-10-18T13:36:26.668Z,16.90
2022-10-18T13:39:05.244Z,17.00
2022-10-18T13:41:57.478Z,17.00
2022-10-18T13:44:30.780Z,16.90
2022-10-18T13:47:36.888Z,16.90
2022-10-18T13:50:31.820Z,16.90
2022-10-18T13:53:40.915Z,16.80
2022-10-18T13:56:27.350Z,16.70
2022-10-18T13:59:21.929Z,16.60
2022-10-18T14:02:16.803Z,16.50
2022-10-18T14:05:23.712Z,16.50
2022-10-18T14:08:03.093Z,16.50
2022-10-18T14:11:00.634Z,16.50
2022-10-18T14:13:36.416Z,16.50
2022-10-18T14:16:11.327Z,16.50
2022-10-18T14:18:44.165Z,16.40
2022-10-18T14:21:22.096Z,16.30
2022-10-18T14:23:54.007Z,16.30
2022-10-18T14:26:23.206Z,16.30
2022-10-18T14:29:04.886Z,16.30
2022-10-18T14:31:34.606Z,16.20
2022-10-18T14:34:04.136Z,16.20
2022-10-18T14:36:41.132Z,16.20
2022-10-18T14:39:21.356Z,16.20
2022-10-18T14:41:51.966Z,16.10
2022-10-18T14:44:23.253Z,16.10
2022-10-18T14:46:53.986Z,16.10
2022-10-18T14:49:23.374Z,16.00
2022-10-18T14:51:54.598Z,16.00
2022-10-18T14:54:30.771Z,16.00
2022-10-18T14:57:01.685Z,15.90
2022-10-18T14:59:33.958Z,15.80
2022-10-18T15:02:06.253Z,15.80
2022-10-18T15:04:35.389Z,15.70
2022-10-18T15:07:06.084Z,15.60
2022-10-18T15:09:37.567Z,15.60
2022-10-18T15:12:08.717Z,15.50
2022-10-18T15:14:38.244Z,15.50
2022-10-18T15:17:13.563Z,15.50
2022-10-18T15:19:54.304Z,15.50
2022-10-18T15:22:33.204Z,15.50
2022-10-18T15:25:15.737Z,15.40
2022-10-18T15:27:48.174Z,15.40
2022-10-18T15:30:24.493Z,15.30
2022-10-18T15:33:02.879Z,15.30
2022-10-18T15:35:33.591Z,15.20
2022-10-18T15:38:14.151Z,15.20
2022-10-18T15:40:45.298Z,15.10
2022-10-18T15:43:37.985Z,15.00
2022-10-18T15:46:07.717Z,15.00
2022-10-18T15:48:38.838Z,14.90
2022-10-18T15:51:09.353Z,14.90
2022-10-18T15:53:46.053Z,14.80
2022-10-18T15:56:33.880Z,14.80
2022-10-18T15:59:05.144Z,14.80
2022-10-18T16:01:39.584Z,14.80
2022-10-18T16:04:15.696Z,14.70
2022-10-18T16:06:44.483Z,14.60
2022-10-18T16:09:17.972Z,14.60
2022-10-18T16:11:54.258Z,14.60
2022-10-18T16:14:26.808Z,14.50
2022-10-18T16:17:01.399Z,14.40
2022-10-18T16:19:30.543Z,14.40
2022-10-18T16:22:05.243Z,14.30
2022-10-18T16:24:35.537Z,14.20
2022-10-18T16:27:06.025Z,14.20
2022-10-18T16:29:35.212Z,14.20
2022-10-18T16:32:04.059Z,14.10
2022-10-18T16:34:33.484Z,14.10
2022-10-18T16:37:02.312Z,14.10
2022-10-18T16:39:35.186Z,14.10
2022-10-18T16:42:05.634Z,14.00
2022-10-18T16:44:34.534Z,14.00
2022-10-18T16:47:03.560Z,14.00
2022-10-18T16:49:32.731Z,14.00
2022-10-18T16:52:01.619Z,13.90
2022-10-18T16:54:30.759Z,13.90
2022-10-18T16:56:59.619Z,13.90
2022-10-18T16:59:32.108Z,13.90
2022-10-18T17:02:06.123Z,13.90
2022-10-18T17:04:35.745Z,13.90
2022-10-18T17:07:06.278Z,13.80
2022-10-18T17:09:37.303Z,13.90
2022-10-18T17:12:06.919Z,13.90
2022-10-18T17:14:37.270Z,13.90
2022-10-18T17:17:06.322Z,14.00
2022-10-18T17:19:35.380Z,13.90
2022-10-18T17:22:04.357Z,13.90
2022-10-18T17:24:33.373Z,13.90
2022-10-18T17:27:02.350Z,14.00
2022-10-18T17:29:32.201Z,14.00
2022-10-18T17:32:03.102Z,14.00
2022-10-18T17:34:32.594Z,13.90
2022-10-18T17:37:02.379Z,13.90
2022-10-18T17:39:31.503Z,13.90
2022-10-18T17:42:01.119Z,13.90
2022-10-18T17:44:30.627Z,13.90
2022-10-18T17:46:59.980Z,13.80
2022-10-18T17:49:30.820Z,13.80
2022-10-18T17:52:04.536Z,13.80
2022-10-18T17:54:36.312Z,13.70
2022-10-18T17:57:05.899Z,13.60
2022-10-18T17:59:35.304Z,13.60
2022-10-18T18:02:05.092Z,13.60
2022-10-18T18:04:37.348Z,13.50
2022-10-18T18:07:07.311Z,13.50
2022-10-18T18:09:40.574Z,13.40
2022-10-18T18:12:10.540Z,13.30
2022-10-18T18:14:39.869Z,13.30
2022-10-18T18:17:09.780Z,13.20
2022-10-18T18:19:40.984Z,13.30
2022-10-18T18:22:11.222Z,13.30
2022-10-18T18:24:40.582Z,13.20
2022-10-18T18:27:10.098Z,13.10
2022-10-18T18:29:39.420Z,13.10
2022-10-18T18:32:09.027Z,12.90
2022-10-18T18:34:41.239Z,12.80
2022-10-18T18:37:12.302Z,12.80
2022-10-18T18:39:41.660Z,12.70
2022-10-18T18:42:12.605Z,12.60
2022-10-18T18:44:46.586Z,12.60
2022-10-18T18:47:15.611Z,12.50
2022-10-18T18:49:44.969Z,12.50
2022-10-18T18:52:16.128Z,12.50
2022-10-18T18:54:46.367Z,12.40
2022-10-18T18:57:15.895Z,12.40
2022-10-18T18:59:45.247Z,12.30
2022-10-18T19:02:14.808Z,12.30
2022-10-18T19:04:44.208Z,12.30
2022-10-18T19:07:16.303Z,12.40
2022-10-18T19:09:47.746Z,12.40
2022-10-18T19:12:20.523Z,12.50
2022-10-18T19:14:50.835Z,12.40
2022-10-18T19:17:20.296Z,12.50
2022-10-18T19:19:49.435Z,12.50
2022-10-18T19:22:21.529Z,12.50
2022-10-18T19:24:50.584Z,12.50
2022-10-18T19:27:20.027Z,12.50
2022-10-18T19:29:49.526Z,12.40
2022-10-18T19:32:19.343Z,12.50
2022-10-18T19:34:49.816Z,12.40
2022-10-18T19:37:21.156Z,12.40
2022-10-18T19:39:50.814Z,12.50
2022-10-18T19:42:24.251Z,12.50
2022-10-18T19:44:55.198Z,12.50
2022-10-18T19:47:24.629Z,12.40
2022-10-18T19:50:04.067Z,12.50
2022-10-18T19:52:35.461Z,12.40
2022-10-18T19:55:05.418Z,12.40
2022-10-18T19:57:34.762Z,12.40
2022-10-18T20:00:06.737Z,12.30
2022-10-18T20:02:39.317Z,12.30
2022-10-18T20:05:09.055Z,12.20
2022-10-18T20:07:41.610Z,12.10
2022-10-18T20:10:10.798Z,11.90
2022-10-18T20:12:39.815Z,11.90
2022-10-18T20:15:10.050Z,11.80
2022-10-18T20:17:39.471Z,11.70
2022-10-18T20:20:09.784Z,11.60
2022-10-18T20:22:40.184Z,11.60
2022-10-18T20:25:09.571Z,11.50
2022-10-18T20:27:38.781Z,11.50
2022-10-18T20:30:10.541Z,11.50
2022-10-18T20:32:40.618Z,11.50
2022-10-18T20:35:12.527Z,11.40
2022-10-18T20:37:42.901Z,11.30
2022-10-18T20:40:13.258Z,11.30
2022-10-18T20:42:42.277Z,11.20
2022-10-18T20:45:12.722Z,11.10
2022-10-18T20:47:41.534Z,11.10
2022-10-18T20:50:11.321Z,11.10
2022-10-18T20:52:41.589Z,11.00
2022-10-18T20:55:10.590Z,11.00
2022-10-18T20:57:39.654Z,11.00
2022-10-18T21:00:11.934Z,10.90
2022-10-18T21:02:41.064Z,10.90
2022-10-18T21:05:10.904Z,10.80
2022-10-18T21:07:39.877Z,10.80
2022-10-18T21:10:11.176Z,10.80
2022-10-18T21:12:40.136Z,10.80
2022-10-18T21:15:10.201Z,10.70
2022-10-18T21:17:39.244Z,10.60
2022-10-18T21:20:10.235Z,10.60
2022-10-18T21:22:39.099Z,10.50
2022-10-18T21:25:11.111Z,10.50
2022-10-18T21:27:40.203Z,10.50
2022-10-18T21:30:09.995Z,10.50
2022-10-18T21:32:38.861Z,10.40
2022-10-18T21:35:08.666Z,10.40
2022-10-18T21:37:37.516Z,10.40
2022-10-18T21:40:07.824Z,10.30
2022-10-18T21:42:38.203Z,10.30
2022-10-18T21:45:08.860Z,10.30
2022-10-18T21:47:37.816Z,10.30
2022-10-18T21:50:07.078Z,10.20
2022-10-18T21:52:36.130Z,10.20
2022-10-18T21:55:07.411Z,10.10
2022-10-18T21:57:38.049Z,10.10
2022-10-18T22:00:08.495Z,10.00
2022-10-18T22:02:37.525Z,10.00
2022-10-18T22:05:08.434Z,9.90
2022-10-18T22:07:40.256Z,9.90
2022-10-18T22:10:09.983Z,9.90
2022-10-18T22:12:40.459Z,9.90
2022-10-18T22:15:10.259Z,9.80
2022-10-18T22:17:39.038Z,9.80
2022-10-18T22:20:09.310Z,9.80
2022-10-18T22:22:38.108Z,9.80
2022-10-18T22:25:07.748Z,9.80
2022-10-18T22:27:36.769Z,9.80
2022-10-18T22:30:08.270Z,9.70
2022-10-18T22:32:37.062Z,9.60
2022-10-18T22:35:06.626Z,9.70
2022-10-18T22:37:35.857Z,9.60
2022-10-18T22:40:05.185Z,9.60
2022-10-18T22:45:03.668Z,9.50
2022-10-18T22:47:34.455Z,9.60
2022-10-18T22:50:03.732Z,9.50
2022-10-18T22:52:32.781Z,9.50
2022-10-18T22:55:01.886Z,9.50
2022-10-18T22:57:31.430Z,9.50
2022-10-18T23:00:00.282Z,9.50
2022-10-18T23:02:29.110Z,9.50
2022-10-18T23:04:59.407Z,9.40
2022-10-18T23:07:28.281Z,9.40
2022-10-18T23:09:57.100Z,9.50
2022-10-18T23:12:26.087Z,9.50
2022-10-18T23:14:54.868Z,9.40
2022-10-18T23:17:23.720Z,9.50
2022-10-18T23:19:52.508Z,9.40
2022-10-18T23:22:22.819Z,9.50
2022-10-18T23:24:51.699Z,9.60
2022-10-18T23:27:20.557Z,9.80
2022-10-18T23:29:49.339Z,10.00
2022-10-18T23:32:18.705Z,10.10
2022-10-18T23:34:47.495Z,10.20
2022-10-18T23:37:16.326Z,10.30
2022-10-18T23:39:46.575Z,10.40
2022-10-18T23:42:15.437Z,10.50
2022-10-18T23:44:44.338Z,10.60
2022-10-18T23:47:13.170Z,10.60
2022-10-18T23:49:42.138Z,10.70
2022-10-18T23:52:11.337Z,10.70
2022-10-18T23:54:40.163Z,10.70
2022-10-18T23:57:10.496Z,10.50
2022-10-18T23:59:39.270Z,10.40
